Airfield :
LOGIN :

Register | Disclaimer

   EN    FR    IT 

 










Legend :    VFR   Marginal VFR   IFR   Intensive IFR   Very Intensive IFR
Visi :
Ceiling :
>= 8 km
>= 3000ft
5 to 8 km
1000 to 3000 ft
1500m to 5 km
500 to 1000 ft
800 to 1500m
200 to 500 ft
< 800m
< 200 ft
Symbols :   Thunderstorms  Fog  Heavy snow  Heavy precipitations  Wind > 20 kt
SIGMETs :     Misc.  Thunderstorms  Icing  Turbulence  Mountain Waves  Volcanic Ashes






- Airport Elevation : 913 ft


LFSX - Luxeuil

CURRENT METAR :
  • 280830Z AUTO 09004KT 9999 -RA ////// 07/05 Q1013

EXPIRED METARs :
  • 280800Z AUTO 09005KT 9999 -DZ ////// 06/04 Q1013
  • 280730Z AUTO 09004KT 9999 ////// 06/04 Q1013
  • 280700Z AUTO 10003KT 9999 ////// 05/04 Q1013
  • 280630Z AUTO 09003KT CAVOK 05/04 Q1013
  • 280600Z AUTO VRB03KT CAVOK 06/04 Q1013

TAF AMD TAF LFSX
Valid from the 28 at 06:00 until the 29 at 03:00 UTC


280550Z 2806/2903 09005KT CAVOK
BECMG 2810/2812 6000 RA BKN014
BECMG 2812/2814 22010KT
BECMG 2900/2903 3500 RADZ BKN005



MET'MAP, your aeronautical weather chart ! - Copyright ORBIFLY December 2007 - Disclaimer

ORBIFLY MET'MAP TEAM :

Programming & Development : Alexandra Zaïnal
Original concept : Baudouin d'Aumeries
Technical & hardware support : Manuel Goepfert
Assistance : Marc-Olivier Méhu




SOURCES & CREDITS :

   NOAA